Time;durP1;ratioP1;P1;durP2;ratioP2;P2;SDS_P1;SDS_P2;PMS_P1;PMS_P2;Temp;Humidity;BMP_temperature;BMP_pressure;BME280_temperature;BME280_humidity;BME280_pressure;Samples;Min_cycle;Max_cycle;Signal;HPM_P1;HPM_P2
2022/01/02 00:01:20;;;;;;;20.48;8.20;;;10.10;62.10;;;;;;6186210;28;20050;-71
2022/01/02 00:04:22;;;;;;;15.57;7.72;;;10.10;62.50;;;;;;6182913;28;20048;-70
2022/01/02 00:07:26;;;;;;;17.98;7.80;;;10.10;62.40;;;;;;6174941;28;20045;-71
2022/01/02 00:10:32;;;;;;;17.77;7.35;;;10.10;62.40;;;;;;6165474;28;20037;-72
2022/01/02 00:13:41;;;;;;;19.83;6.95;;;10.10;62.50;;;;;;6179539;28;20120;-72
2022/01/02 00:16:42;;;;;;;22.17;8.13;;;10.10;62.40;;;;;;6170387;28;20034;-72
2022/01/02 00:19:51;;;;;;;19.25;7.68;;;10.20;62.50;;;;;;6170966;28;20163;-71
2022/01/02 00:22:52;;;;;;;27.30;9.30;;;10.20;62.50;;;;;;6161816;28;20389;-71
2022/01/02 00:25:54;;;;;;;23.92;8.82;;;10.20;62.30;;;;;;6162264;28;20042;-70
2022/01/02 00:28:55;;;;;;;24.25;8.82;;;10.10;62.20;;;;;;6159150;28;20049;-71
2022/01/02 00:31:56;;;;;;;22.25;9.25;;;10.10;62.30;;;;;;6162041;28;20060;-72
2022/01/02 00:35:00;;;;;;;21.70;8.38;;;10.10;62.30;;;;;;6146047;28;20111;-71
2022/01/02 00:38:01;;;;;;;20.42;8.05;;;10.10;62.30;;;;;;6159332;28;20566;-71
2022/01/02 00:41:02;;;;;;;16.73;7.63;;;10.00;62.30;;;;;;6169533;28;20133;-72
2022/01/02 00:44:20;;;;;;;15.35;7.30;;;10.00;62.40;;;;;;6169824;28;20347;-72
2022/01/02 00:47:36;;;;;;;15.80;7.45;;;9.90;62.60;;;;;;6178108;28;20107;-71
2022/01/02 00:50:42;;;;;;;24.92;8.73;;;9.90;62.80;;;;;;6187868;28;20026;-71
2022/01/02 00:53:47;;;;;;;20.88;7.88;;;9.80;62.90;;;;;;6196721;28;20541;-72
2022/01/02 00:56:52;;;;;;;16.45;7.60;;;9.80;63.00;;;;;;6221590;28;20034;-71
2022/01/02 01:00:11;;;;;;;22.73;7.72;;;9.70;63.10;;;;;;6239899;28;20114;-71
2022/01/02 01:03:21;;;;;;;18.65;8.10;;;9.70;63.30;;;;;;6206692;28;20029;-71
2022/01/02 01:06:30;;;;;;;18.20;7.13;;;9.70;63.30;;;;;;6226176;28;20033;-71
2022/01/02 01:09:32;;;;;;;16.25;8.02;;;9.70;63.40;;;;;;6241896;28;20037;-71
2022/01/02 01:12:33;;;;;;;20.55;6.95;;;9.70;63.50;;;;;;6241226;28;20037;-71
2022/01/02 01:15:36;;;;;;;19.80;7.93;;;9.60;63.50;;;;;;6231192;28;20048;-71
2022/01/02 01:18:39;;;;;;;13.20;6.47;;;9.60;63.60;;;;;;6196351;28;20459;-71
2022/01/02 01:21:41;;;;;;;17.70;7.00;;;9.60;63.80;;;;;;6213192;28;20042;-71
2022/01/02 01:24:43;;;;;;;18.50;6.78;;;9.60;63.90;;;;;;6207261;28;20030;-71
2022/01/02 01:27:46;;;;;;;17.30;7.65;;;9.60;64.00;;;;;;6153834;28;20376;-71
2022/01/02 01:30:48;;;;;;;19.73;6.78;;;9.60;64.00;;;;;;6164268;28;20041;-72
2022/01/02 01:33:50;;;;;;;16.45;7.13;;;9.50;63.90;;;;;;6151863;28;20416;-71
2022/01/02 01:36:51;;;;;;;19.05;7.43;;;9.50;64.00;;;;;;6168042;28;20042;-72
2022/01/02 01:39:52;;;;;;;23.52;8.15;;;9.50;64.10;;;;;;6179047;28;20049;-70
2022/01/02 01:42:59;;;;;;;18.77;7.55;;;9.50;64.00;;;;;;6168159;28;20033;-71
2022/01/02 01:46:05;;;;;;;14.05;7.00;;;9.50;64.10;;;;;;6173644;28;21126;-71
2022/01/02 01:49:21;;;;;;;17.63;6.38;;;9.50;64.10;;;;;;6183306;28;21212;-72
2022/01/02 01:52:23;;;;;;;16.42;6.88;;;9.50;64.10;;;;;;6173714;28;20462;-72
2022/01/02 01:55:25;;;;;;;18.65;7.50;;;9.60;64.00;;;;;;6181210;28;20525;-71
2022/01/02 01:58:26;;;;;;;20.27;7.13;;;9.70;64.00;;;;;;6185234;28;20049;-71
2022/01/02 02:01:28;;;;;;;20.05;6.75;;;9.70;63.80;;;;;;6175093;28;21304;-71
2022/01/02 02:04:30;;;;;;;14.77;6.93;;;9.70;63.60;;;;;;6156951;28;20039;-72
2022/01/02 02:07:39;;;;;;;18.92;7.20;;;9.80;63.60;;;;;;6152660;28;20046;-71
2022/01/02 02:10:45;;;;;;;20.77;7.97;;;9.70;63.50;;;;;;6159095;28;20108;-71
2022/01/02 02:13:48;;;;;;;16.67;6.72;;;9.70;63.40;;;;;;6159843;28;20127;-70
2022/01/02 02:16:49;;;;;;;19.73;7.47;;;9.70;63.50;;;;;;6151069;28;20060;-71
2022/01/02 02:19:57;;;;;;;15.57;7.90;;;9.70;63.40;;;;;;6147874;28;20881;-71
2022/01/02 02:23:00;;;;;;;18.25;6.72;;;9.70;63.30;;;;;;6172284;28;20054;-71
2022/01/02 02:26:01;;;;;;;20.30;7.57;;;9.70;63.30;;;;;;6186055;28;20536;-71
2022/01/02 02:29:04;;;;;;;14.85;6.78;;;9.70;63.30;;;;;;6177574;28;20072;-71
2022/01/02 02:32:06;;;;;;;15.35;6.38;;;9.60;63.40;;;;;;6178664;28;20047;-71
2022/01/02 02:35:07;;;;;;;14.23;6.28;;;9.60;63.60;;;;;;6176602;28;20034;-71
2022/01/02 02:38:10;;;;;;;18.48;6.95;;;9.50;63.80;;;;;;6185288;28;20115;-71
2022/01/02 02:41:12;;;;;;;13.00;6.03;;;9.40;63.90;;;;;;6178862;28;20060;-71
2022/01/02 02:44:32;;;;;;;11.02;5.18;;;9.40;64.10;;;;;;6184714;28;21128;-71
2022/01/02 02:50:54;;;;;;;16.90;6.22;;;9.40;64.40;;;;;;6153522;28;20042;-71
2022/01/02 02:53:56;;;;;;;12.25;5.95;;;9.40;64.40;;;;;;6176629;28;20041;-71
2022/01/02 02:56:59;;;;;;;14.73;6.95;;;9.40;64.50;;;;;;6162504;28;20092;-72
2022/01/02 03:00:06;;;;;;;14.15;6.40;;;9.40;64.30;;;;;;6156831;28;20042;-71
2022/01/02 03:03:08;;;;;;;16.25;6.57;;;9.50;64.40;;;;;;6143501;28;21085;-72
2022/01/02 03:06:10;;;;;;;15.85;7.18;;;9.50;64.30;;;;;;6151927;28;20359;-72
2022/01/02 03:09:11;;;;;;;17.05;6.53;;;9.50;64.20;;;;;;6154852;28;20383;-72
2022/01/02 03:12:15;;;;;;;12.05;5.93;;;9.50;64.20;;;;;;6157229;28;20034;-72
2022/01/02 03:15:21;;;;;;;16.60;6.82;;;9.50;64.10;;;;;;6159893;28;20045;-72
2022/01/02 03:18:23;;;;;;;21.75;7.55;;;9.50;64.10;;;;;;6141490;28;20069;-72
2022/01/02 03:21:24;;;;;;;19.65;7.43;;;9.60;64.00;;;;;;6159132;28;20045;-72
2022/01/02 03:24:26;;;;;;;16.48;6.50;;;9.60;64.00;;;;;;6141113;28;20030;-71
2022/01/02 03:27:28;;;;;;;19.50;7.60;;;9.60;63.90;;;;;;6149321;28;20049;-71
2022/01/02 03:30:30;;;;;;;14.45;6.32;;;9.50;63.70;;;;;;6182339;28;20462;-71
2022/01/02 03:33:31;;;;;;;16.73;6.05;;;9.50;63.80;;;;;;6164292;28;20103;-71
2022/01/02 03:36:33;;;;;;;22.70;7.03;;;9.40;63.90;;;;;;6185021;28;20049;-71
2022/01/02 03:39:36;;;;;;;17.73;6.10;;;9.40;64.00;;;;;;6179483;28;20490;-70
2022/01/02 03:42:38;;;;;;;11.07;5.40;;;9.30;64.20;;;;;;6177233;28;20473;-71
2022/01/02 03:45:40;;;;;;;10.60;4.40;;;9.20;64.30;;;;;;6189087;28;20039;-71
2022/01/02 03:48:41;;;;;;;9.45;4.18;;;9.10;64.60;;;;;;6190426;28;20037;-71
2022/01/02 03:51:43;;;;;;;11.70;5.10;;;8.90;64.80;;;;;;6162864;28;20033;-71
2022/01/02 03:54:44;;;;;;;15.40;5.30;;;8.90;65.00;;;;;;6180080;28;20047;-71
2022/01/02 03:57:46;;;;;;;11.30;5.47;;;8.90;65.30;;;;;;6203924;28;20037;-70
2022/01/02 04:00:47;;;;;;;14.57;6.32;;;8.80;65.30;;;;;;6188665;28;20045;-71
2022/01/02 04:03:48;;;;;;;12.63;6.50;;;8.90;65.30;;;;;;6192943;28;20619;-70
2022/01/02 04:06:49;;;;;;;13.95;7.43;;;8.90;65.40;;;;;;6185574;28;20045;-71
2022/01/02 04:09:51;;;;;;;17.83;7.85;;;8.90;65.50;;;;;;6178822;28;20054;-72
2022/01/02 04:12:52;;;;;;;19.67;7.43;;;8.90;65.30;;;;;;6184685;28;20571;-71
2022/01/02 04:15:53;;;;;;;19.00;7.82;;;8.80;65.30;;;;;;6194706;28;20049;-72
2022/01/02 04:18:54;;;;;;;16.90;7.47;;;8.80;65.30;;;;;;6151087;28;20079;-71
2022/01/02 04:21:55;;;;;;;19.02;8.05;;;8.80;65.30;;;;;;6139387;28;20131;-71
2022/01/02 04:24:56;;;;;;;20.08;8.20;;;8.70;65.20;;;;;;6171784;28;20278;-71
2022/01/02 04:27:57;;;;;;;14.57;6.82;;;8.70;65.10;;;;;;6186636;28;20131;-71
2022/01/02 04:30:58;;;;;;;16.33;7.60;;;8.70;65.50;;;;;;6193063;28;20128;-71
2022/01/02 04:34:00;;;;;;;20.42;8.45;;;8.70;65.90;;;;;;6195013;28;20045;-71
2022/01/02 04:37:02;;;;;;;27.17;7.25;;;8.70;65.90;;;;;;6180597;28;20034;-71
2022/01/02 04:40:04;;;;;;;16.88;7.20;;;8.70;65.20;;;;;;6191368;28;20379;-71
2022/01/02 04:43:07;;;;;;;13.15;5.32;;;8.70;65.20;;;;;;6177076;28;20103;-71
2022/01/02 04:46:08;;;;;;;10.48;5.47;;;8.60;65.40;;;;;;6215883;28;20052;-72
2022/01/02 04:49:10;;;;;;;14.88;5.82;;;8.50;65.70;;;;;;6194023;28;20037;-74
2022/01/02 04:52:11;;;;;;;15.15;6.50;;;8.40;66.00;;;;;;6193086;28;20037;-74
2022/01/02 04:55:12;;;;;;;30.17;7.18;;;8.20;66.30;;;;;;6189593;28;20033;-71
2022/01/02 04:58:13;;;;;;;23.27;6.72;;;8.10;66.20;;;;;;6189724;28;20123;-71
2022/01/02 05:01:16;;;;;;;15.10;6.25;;;7.90;66.40;;;;;;6193668;28;20068;-73
2022/01/02 05:04:17;;;;;;;12.32;5.78;;;7.70;66.50;;;;;;6186995;28;20069;-73
2022/01/02 05:07:19;;;;;;;22.83;5.30;;;7.40;66.70;;;;;;6194194;28;20041;-71
2022/01/02 05:10:20;;;;;;;10.80;4.95;;;7.20;67.00;;;;;;6171951;28;20549;-71
2022/01/02 05:13:21;;;;;;;12.13;5.15;;;7.00;67.50;;;;;;6191804;28;20045;-71
2022/01/02 05:16:24;;;;;;;11.68;5.30;;;6.90;68.30;;;;;;6161083;28;20045;-72
2022/01/02 05:19:25;;;;;;;18.08;6.72;;;6.80;69.00;;;;;;6142891;28;20045;-71
2022/01/02 05:22:26;;;;;;;13.70;5.70;;;6.80;69.50;;;;;;6154769;28;20560;-72
2022/01/02 05:25:28;;;;;;;12.65;5.72;;;6.80;70.20;;;;;;6157056;28;20054;-71
2022/01/02 05:28:29;;;;;;;13.45;6.55;;;6.80;70.70;;;;;;6165394;28;20043;-71
2022/01/02 05:31:32;;;;;;;14.30;5.85;;;6.90;71.00;;;;;;6170419;28;20033;-72
2022/01/02 05:34:34;;;;;;;12.45;6.25;;;7.00;71.10;;;;;;6182461;28;20490;-70
2022/01/02 05:37:35;;;;;;;9.38;5.30;;;7.10;71.10;;;;;;6176324;28;20038;-71
2022/01/02 05:40:37;;;;;;;17.73;6.25;;;7.20;70.90;;;;;;6192396;28;20045;-71
2022/01/02 05:43:38;;;;;;;13.73;5.57;;;7.30;70.70;;;;;;6196605;28;24434;-71
2022/01/02 05:46:41;;;;;;;18.83;7.00;;;7.40;70.30;;;;;;6193471;28;20045;-71
2022/01/02 05:49:43;;;;;;;14.70;5.82;;;7.40;70.30;;;;;;6197806;28;20057;-71
2022/01/02 05:52:45;;;;;;;14.95;6.40;;;7.40;70.20;;;;;;6190314;28;20450;-72
2022/01/02 05:55:47;;;;;;;16.42;6.40;;;7.50;70.30;;;;;;6182287;28;20025;-71
2022/01/02 05:58:48;;;;;;;13.25;5.53;;;7.60;70.40;;;;;;6200186;28;20041;-71
2022/01/02 06:01:49;;;;;;;14.20;5.93;;;7.60;70.20;;;;;;6192611;28;20140;-71
2022/01/02 06:04:50;;;;;;;15.43;6.47;;;7.70;70.30;;;;;;6218055;28;20042;-70
2022/01/02 06:07:51;;;;;;;16.55;6.82;;;7.70;70.10;;;;;;6192083;28;20489;-70
2022/01/02 06:10:53;;;;;;;11.68;5.40;;;7.80;70.10;;;;;;6191170;28;20711;-72
2022/01/02 06:13:54;;;;;;;13.30;6.18;;;7.90;70.00;;;;;;6174118;28;20419;-71
2022/01/02 06:16:58;;;;;;;14.05;6.50;;;7.90;69.90;;;;;;6202806;28;20061;-71
2022/01/02 06:20:00;;;;;;;15.32;6.68;;;7.90;69.90;;;;;;6188597;28;20545;-71
2022/01/02 06:23:01;;;;;;;15.60;7.22;;;7.90;69.50;;;;;;6169203;28;20041;-73
2022/01/02 06:26:02;;;;;;;16.15;6.03;;;7.90;69.40;;;;;;6176696;28;20053;-71
2022/01/02 06:29:04;;;;;;;27.17;7.00;;;7.90;69.30;;;;;;6162335;28;20040;-71
2022/01/02 06:32:07;;;;;;;22.65;7.05;;;7.90;69.30;;;;;;6185136;28;20182;-71
2022/01/02 06:35:08;;;;;;;24.88;7.25;;;7.90;69.30;;;;;;6161801;28;20053;-71
2022/01/02 06:38:15;;;;;;;19.05;6.57;;;7.80;69.30;;;;;;6181857;28;20049;-71
2022/01/02 06:41:18;;;;;;;17.90;7.85;;;7.80;69.50;;;;;;6178187;28;20379;-70
2022/01/02 06:44:20;;;;;;;14.70;7.05;;;7.80;70.40;;;;;;6192588;28;20135;-70
2022/01/02 06:47:23;;;;;;;21.80;7.05;;;7.80;69.60;;;;;;6203131;28;20627;-70
2022/01/02 06:50:25;;;;;;;26.02;6.65;;;7.90;69.60;;;;;;6208168;28;20128;-71
2022/01/02 06:53:26;;;;;;;19.08;6.57;;;7.90;69.70;;;;;;6191305;28;20040;-73
2022/01/02 06:56:27;;;;;;;22.67;7.70;;;7.90;69.60;;;;;;6211515;28;20047;-72
2022/01/02 06:59:31;;;;;;;22.77;7.35;;;7.90;69.50;;;;;;6215232;28;20049;-71
2022/01/02 07:02:33;;;;;;;17.08;6.30;;;7.90;69.50;;;;;;6206589;28;20128;-71
2022/01/02 07:05:35;;;;;;;17.77;7.20;;;7.80;69.60;;;;;;6224859;28;20071;-72
2022/01/02 07:08:37;;;;;;;20.90;6.57;;;7.80;69.70;;;;;;6219123;28;20045;-72
2022/01/02 07:11:38;;;;;;;12.98;6.10;;;7.70;69.80;;;;;;6222475;28;20041;-72
2022/01/02 07:14:39;;;;;;;12.93;6.90;;;7.60;70.00;;;;;;6204840;28;20056;-71
2022/01/02 07:17:40;;;;;;;21.75;6.32;;;7.50;70.30;;;;;;6215416;28;20136;-71
2022/01/02 07:20:41;;;;;;;10.63;5.40;;;7.40;70.70;;;;;;6209205;28;20042;-71
2022/01/02 07:23:42;;;;;;;26.10;6.57;;;7.30;70.90;;;;;;6191380;28;20087;-71
2022/01/02 07:26:44;;;;;;;13.85;6.15;;;7.30;71.10;;;;;;6202941;28;20029;-71
2022/01/02 07:29:46;;;;;;;11.63;5.82;;;7.30;71.50;;;;;;6210510;28;20041;-72
2022/01/02 07:32:47;;;;;;;11.38;5.43;;;7.30;71.70;;;;;;6192932;28;20186;-72
2022/01/02 07:35:48;;;;;;;11.73;5.43;;;7.30;71.90;;;;;;6189674;28;20041;-72
2022/01/02 07:38:49;;;;;;;13.65;5.03;;;7.40;72.00;;;;;;6181996;28;20411;-72
2022/01/02 07:41:51;;;;;;;16.75;6.30;;;7.40;72.10;;;;;;6199010;28;20052;-71
2022/01/02 07:44:58;;;;;;;17.65;6.82;;;7.50;72.30;;;;;;6209529;28;20064;-72
2022/01/02 07:47:59;;;;;;;19.67;6.72;;;7.60;72.30;;;;;;6199515;28;20339;-73
2022/01/02 07:51:00;;;;;;;12.82;5.57;;;7.60;72.30;;;;;;6203275;28;20037;-74
2022/01/02 07:54:01;;;;;;;13.80;6.07;;;7.70;72.40;;;;;;6175402;28;20635;-73
2022/01/02 07:57:03;;;;;;;14.18;6.30;;;7.80;72.40;;;;;;6209008;28;20041;-71
2022/01/02 08:00:05;;;;;;;18.63;7.05;;;7.80;72.30;;;;;;6187326;28;20044;-72
2022/01/02 08:03:13;;;;;;;21.83;7.78;;;8.00;72.40;;;;;;6201932;28;20041;-72
2022/01/02 08:06:14;;;;;;;22.08;7.63;;;8.10;72.30;;;;;;6197660;28;20087;-72
2022/01/02 08:09:15;;;;;;;16.75;6.70;;;8.20;72.00;;;;;;6199310;28;20048;-71
2022/01/02 08:12:16;;;;;;;12.70;6.28;;;8.30;71.70;;;;;;6204000;28;20033;-71
2022/01/02 08:15:17;;;;;;;15.35;7.32;;;8.30;70.80;;;;;;6193261;28;20061;-71
2022/01/02 08:18:18;;;;;;;22.67;7.15;;;8.30;70.70;;;;;;6202915;28;20049;-71
2022/01/02 08:21:19;;;;;;;21.50;7.38;;;8.30;70.60;;;;;;6188198;28;20041;-72
2022/01/02 08:24:21;;;;;;;18.45;6.63;;;8.40;70.50;;;;;;6206208;28;20041;-71
2022/01/02 08:27:22;;;;;;;20.30;8.25;;;8.60;70.30;;;;;;6187500;28;20649;-72
2022/01/02 08:30:23;;;;;;;16.08;7.07;;;8.60;70.10;;;;;;6201802;28;20060;-71
2022/01/02 08:33:24;;;;;;;16.83;6.70;;;8.60;69.60;;;;;;6206034;28;20435;-72
2022/01/02 08:36:26;;;;;;;13.65;6.10;;;8.60;69.20;;;;;;6203140;28;20050;-71
2022/01/02 08:39:27;;;;;;;16.92;6.85;;;8.60;68.90;;;;;;6186935;28;20433;-71
2022/01/02 08:42:28;;;;;;;20.98;7.20;;;8.70;68.90;;;;;;6195220;28;20040;-71
2022/01/02 08:45:30;;;;;;;16.38;7.60;;;8.70;68.70;;;;;;6186845;28;20068;-72
2022/01/02 08:48:31;;;;;;;20.02;7.20;;;8.60;68.70;;;;;;6183337;28;20053;-71
2022/01/02 08:51:32;;;;;;;14.63;6.25;;;8.70;69.00;;;;;;6187643;28;20041;-71
2022/01/02 08:54:33;;;;;;;20.40;8.07;;;8.70;69.20;;;;;;6188074;28;20038;-71
2022/01/02 08:57:34;;;;;;;18.67;7.00;;;8.80;69.30;;;;;;6187644;28;20458;-71
2022/01/02 09:00:36;;;;;;;22.33;6.78;;;8.90;69.40;;;;;;6190512;28;20053;-72
2022/01/02 09:03:37;;;;;;;15.10;6.40;;;9.00;69.40;;;;;;6165644;28;20041;-72
2022/01/02 09:06:38;;;;;;;23.58;6.95;;;9.20;69.50;;;;;;6164121;28;20045;-72
2022/01/02 09:09:40;;;;;;;16.42;6.72;;;9.30;69.40;;;;;;6168268;28;20762;-71
2022/01/02 09:12:41;;;;;;;15.23;7.22;;;9.40;69.40;;;;;;6168531;28;20038;-72
2022/01/02 09:15:42;;;;;;;24.42;8.55;;;9.50;69.30;;;;;;6179845;28;20356;-71
2022/01/02 09:18:43;;;;;;;17.35;7.68;;;9.60;68.80;;;;;;6175363;28;20073;-72
2022/01/02 09:21:44;;;;;;;22.83;8.82;;;9.60;68.20;;;;;;6186587;28;20386;-72
2022/01/02 09:24:45;;;;;;;18.48;7.78;;;9.50;67.90;;;;;;6179237;28;20041;-71
2022/01/02 09:27:47;;;;;;;20.65;8.45;;;9.50;67.60;;;;;;6178944;28;20108;-72
2022/01/02 09:30:48;;;;;;;21.15;8.27;;;9.50;67.40;;;;;;6171586;28;20474;-71
2022/01/02 09:33:49;;;;;;;22.98;9.45;;;9.50;67.50;;;;;;6193694;28;20147;-71
2022/01/02 09:36:50;;;;;;;20.90;7.80;;;9.50;67.50;;;;;;6195157;28;20064;-72
2022/01/02 09:39:51;;;;;;;22.42;8.00;;;9.60;67.70;;;;;;6166754;28;20045;-71
2022/01/02 09:42:54;;;;;;;19.55;8.20;;;9.70;67.20;;;;;;6171136;28;20510;-73
2022/01/02 09:45:56;;;;;;;19.55;7.60;;;9.80;67.10;;;;;;6167502;28;20135;-70
2022/01/02 09:48:58;;;;;;;20.08;9.02;;;9.90;66.80;;;;;;6196163;28;20041;-71
2022/01/02 09:51:59;;;;;;;21.73;8.95;;;10.00;66.50;;;;;;6203452;28;20050;-70
2022/01/02 09:55:00;;;;;;;17.20;8.90;;;10.10;66.60;;;;;;6210481;28;20036;-71
2022/01/02 09:58:04;;;;;;;22.60;8.15;;;10.20;66.70;;;;;;6222247;28;20133;-71
2022/01/02 10:01:05;;;;;;;20.17;9.02;;;10.40;66.20;;;;;;6230454;28;20059;-70
2022/01/02 10:04:06;;;;;;;17.40;8.18;;;10.50;65.80;;;;;;6232982;28;20124;-72
2022/01/02 10:07:29;;;;;;;17.98;7.57;;;10.60;65.40;;;;;;6234923;28;20108;-70
2022/01/02 10:10:34;;;;;;;19.67;7.63;;;10.60;65.20;;;;;;6220129;28;20034;-72
2022/01/02 10:13:50;;;;;;;11.48;5.68;;;10.70;65.20;;;;;;6235933;28;20339;-72
2022/01/02 10:16:51;;;;;;;11.95;5.88;;;10.70;65.50;;;;;;6236243;28;20117;-72
2022/01/02 10:19:52;;;;;;;14.05;5.13;;;10.80;65.70;;;;;;6223281;28;20053;-72
2022/01/02 10:23:11;;;;;;;12.05;6.22;;;10.80;65.90;;;;;;6184646;28;20797;-72
2022/01/02 10:26:13;;;;;;;14.32;5.43;;;10.80;66.30;;;;;;6226461;28;20033;-70
2022/01/02 10:29:14;;;;;;;12.18;5.50;;;10.80;66.60;;;;;;6211651;28;20504;-74
2022/01/02 10:32:37;;;;;;;11.55;5.97;;;10.90;66.90;;;;;;6210631;28;20073;-71
2022/01/02 10:35:40;;;;;;;13.57;5.30;;;11.00;67.00;;;;;;6169140;28;20045;-72
2022/01/02 10:38:59;;;;;;;14.32;6.90;;;11.30;66.90;;;;;;6187981;28;20064;-72
2022/01/02 10:42:00;;;;;;;16.42;5.85;;;11.60;66.70;;;;;;6178653;28;20513;-71
2022/01/02 10:45:02;;;;;;;9.23;4.60;;;11.70;66.20;;;;;;6185021;28;20038;-72
2022/01/02 10:48:06;;;;;;;9.07;4.78;;;11.90;65.80;;;;;;6190064;28;20033;-71
2022/01/02 10:51:17;;;;;;;8.40;4.40;;;12.10;65.50;;;;;;6205974;28;20045;-71
2022/01/02 10:54:17;;;;;;;9.27;4.82;;;12.40;64.90;;;;;;6193772;28;20042;-72
2022/01/02 10:57:19;;;;;;;10.48;4.65;;;12.80;64.20;;;;;;6193876;28;20064;-71
2022/01/02 11:00:24;;;;;;;6.63;3.83;;;13.20;62.50;;;;;;6190588;28;20037;-71
2022/01/02 11:03:26;;;;;;;6.65;3.90;;;13.60;61.60;;;;;;6195859;28;20056;-72
2022/01/02 11:06:30;;;;;;;6.72;3.83;;;14.00;60.50;;;;;;6207315;28;20029;-71
2022/01/02 11:09:32;;;;;;;17.98;8.50;;;14.30;59.90;;;;;;6183425;28;20798;-70
2022/01/02 11:12:34;;;;;;;15.95;6.75;;;14.40;58.90;;;;;;6165191;28;20041;-72
2022/01/02 11:15:35;;;;;;;10.13;4.95;;;14.70;58.00;;;;;;6188122;28;20042;-72
2022/01/02 11:18:36;;;;;;;9.48;3.55;;;14.90;57.50;;;;;;6188285;28;20100;-72
2022/01/02 11:21:40;;;;;;;7.20;3.75;;;15.00;56.80;;;;;;6186660;28;20041;-73
2022/01/02 11:24:55;;;;;;;6.22;3.35;;;15.30;55.80;;;;;;6230862;28;20075;-71
2022/01/02 11:28:05;;;;;;;8.07;3.70;;;15.70;55.20;;;;;;6203264;28;20044;-72
2022/01/02 11:31:09;;;;;;;6.80;3.20;;;16.30;54.20;;;;;;6190441;28;20065;-72
2022/01/02 11:34:32;;;;;;;5.13;3.40;;;17.00;52.90;;;;;;6218838;28;20068;-71
2022/01/02 11:37:34;;;;;;;6.00;3.28;;;17.70;51.60;;;;;;6204300;28;20045;-71
2022/01/02 11:40:58;;;;;;;5.57;3.13;;;18.20;50.30;;;;;;6198322;28;20630;-71
2022/01/02 11:44:00;;;;;;;4.63;2.72;;;18.60;49.00;;;;;;6205134;28;20459;-72
2022/01/02 11:47:01;;;;;;;4.90;2.83;;;18.90;47.90;;;;;;6179549;28;20037;-71
2022/01/02 11:50:02;;;;;;;7.63;3.65;;;18.80;47.60;;;;;;6150176;28;20081;-72
2022/01/02 11:53:09;;;;;;;7.82;3.55;;;18.30;48.40;;;;;;6140833;28;20038;-73
2022/01/02 11:56:31;;;;;;;5.57;2.78;;;17.70;49.50;;;;;;6166671;28;20057;-72
2022/01/02 11:59:38;;;;;;;5.85;3.13;;;17.10;50.40;;;;;;6177271;28;20099;-70
2022/01/02 12:02:39;;;;;;;5.85;3.03;;;16.80;51.10;;;;;;6147324;28;20056;-72
2022/01/02 12:06:13;;;;;;;7.57;3.38;;;16.50;51.70;;;;;;6160673;28;20044;-72
2022/01/02 12:09:36;;;;;;;7.35;3.42;;;16.20;52.10;;;;;;6172439;28;20046;-71
2022/01/02 12:12:59;;;;;;;5.05;2.90;;;15.80;52.60;;;;;;6173156;28;20053;-71
2022/01/02 12:16:01;;;;;;;6.72;3.50;;;15.60;53.20;;;;;;6178236;28;20038;-70
2022/01/02 12:19:04;;;;;;;7.90;3.53;;;15.40;53.50;;;;;;6153297;28;20045;-71
2022/01/02 12:22:11;;;;;;;8.23;3.50;;;15.20;53.80;;;;;;6179045;28;21106;-72
2022/01/02 12:25:18;;;;;;;5.45;3.10;;;15.00;54.10;;;;;;6155058;28;20048;-72
2022/01/02 12:28:19;;;;;;;7.93;3.90;;;14.80;55.10;;;;;;6168854;28;20143;-71
2022/01/02 12:31:20;;;;;;;7.22;3.72;;;14.50;54.80;;;;;;6174227;28;20148;-73
2022/01/02 12:34:22;;;;;;;6.57;3.47;;;14.30;55.20;;;;;;6167211;28;20213;-72
2022/01/02 12:37:30;;;;;;;6.53;3.33;;;14.20;55.60;;;;;;6145687;28;20463;-71
2022/01/02 12:40:38;;;;;;;7.25;3.58;;;14.10;55.90;;;;;;6162143;28;20044;-72
2022/01/02 12:43:40;;;;;;;5.80;3.17;;;14.10;56.10;;;;;;6169582;28;20052;-71
2022/01/02 12:46:58;;;;;;;6.10;3.28;;;14.10;56.20;;;;;;6176233;28;20171;-72
2022/01/02 12:49:59;;;;;;;9.10;3.58;;;14.20;56.30;;;;;;6153421;28;20525;-71
2022/01/02 12:53:01;;;;;;;6.28;3.63;;;14.20;56.30;;;;;;6174386;28;20056;-73
2022/01/02 12:56:03;;;;;;;5.95;3.13;;;14.20;56.20;;;;;;6169354;28;20034;-74
2022/01/02 12:59:28;;;;;;;7.82;3.70;;;14.20;56.20;;;;;;6157361;28;20107;-73
2022/01/02 13:02:30;;;;;;;6.95;3.40;;;14.00;56.20;;;;;;6146791;28;20050;-72
2022/01/02 13:05:31;;;;;;;6.50;3.42;;;14.00;56.40;;;;;;6148557;28;21178;-72
2022/01/02 13:08:32;;;;;;;7.95;3.58;;;13.90;56.70;;;;;;6156030;28;20042;-72
2022/01/02 13:11:37;;;;;;;7.00;3.67;;;13.90;56.80;;;;;;6138437;28;20080;-72
2022/01/02 13:14:40;;;;;;;6.53;3.75;;;13.80;56.90;;;;;;6160168;28;20061;-73
2022/01/02 13:17:49;;;;;;;7.47;3.42;;;13.80;57.00;;;;;;6178971;28;20114;-71
2022/01/02 13:20:51;;;;;;;6.10;3.28;;;13.70;57.10;;;;;;6171143;28;20033;-73
2022/01/02 13:23:52;;;;;;;7.53;3.85;;;13.70;57.20;;;;;;6174350;28;20042;-71
2022/01/02 13:26:53;;;;;;;5.72;3.17;;;13.70;57.30;;;;;;6176188;28;20041;-73
2022/01/02 13:29:57;;;;;;;4.53;2.95;;;13.70;57.30;;;;;;6172351;28;20065;-72
2022/01/02 13:33:02;;;;;;;6.18;3.95;;;13.70;57.30;;;;;;6171135;28;20048;-72
2022/01/02 13:36:15;;;;;;;8.02;3.97;;;13.70;57.40;;;;;;6183119;28;20354;-73
2022/01/02 13:39:16;;;;;;;6.55;3.60;;;13.70;57.50;;;;;;6187057;28;20048;-73
2022/01/02 13:42:17;;;;;;;6.05;3.35;;;13.70;57.50;;;;;;6182579;28;21044;-72
2022/01/02 13:45:33;;;;;;;4.40;3.08;;;13.70;57.60;;;;;;6177398;28;20045;-73
2022/01/02 13:48:35;;;;;;;6.85;3.65;;;13.60;57.60;;;;;;6190321;28;20539;-72
2022/01/02 13:51:36;;;;;;;5.63;2.72;;;13.60;57.70;;;;;;6204042;28;20116;-72
2022/01/02 13:54:38;;;;;;;5.25;3.33;;;13.70;57.80;;;;;;6185023;28;20073;-72
2022/01/02 13:57:39;;;;;;;9.68;3.78;;;13.60;57.80;;;;;;6173686;28;20117;-72
2022/01/02 14:00:47;;;;;;;11.25;4.15;;;13.70;58.00;;;;;;6169451;28;20056;-73
2022/01/02 14:03:56;;;;;;;;;;;13.60;58.10;;;;;;6207363;28;20038;-72
2022/01/02 14:07:06;;;;;;;;;;;13.60;58.20;;;;;;6199922;28;20606;-72
2022/01/02 14:10:09;;;;;;;7.45;3.63;;;13.60;58.30;;;;;;6191557;28;23174;-72
2022/01/02 14:13:13;;;;;;;6.78;3.92;;;13.50;58.40;;;;;;6196138;28;20087;-72
2022/01/02 14:16:31;;;;;;;6.35;3.40;;;13.50;58.60;;;;;;6189610;28;20029;-72
2022/01/02 14:19:46;;;;;;;7.38;3.67;;;13.40;58.60;;;;;;6184799;28;20172;-72
2022/01/02 14:22:49;;;;;;;6.72;3.50;;;13.30;58.80;;;;;;6192847;28;20094;-74
2022/01/02 14:25:50;;;;;;;5.30;3.03;;;13.30;59.00;;;;;;6192692;28;20092;-71
2022/01/02 14:28:59;;;;;;;8.68;3.85;;;13.20;59.20;;;;;;6187149;28;20106;-73
2022/01/02 14:32:01;;;;;;;6.80;3.72;;;13.20;59.30;;;;;;6189819;28;20033;-73
2022/01/02 14:35:03;;;;;;;7.43;3.83;;;13.10;59.40;;;;;;6184384;28;20041;-73
2022/01/02 14:38:04;;;;;;;5.57;3.42;;;13.10;59.50;;;;;;6187458;28;20385;-72
2022/01/02 14:41:05;;;;;;;7.32;3.65;;;13.10;59.50;;;;;;6188291;28;20081;-74
2022/01/02 14:44:09;;;;;;;8.90;4.18;;;13.10;59.60;;;;;;6183522;28;20053;-73
2022/01/02 14:47:11;;;;;;;6.82;3.90;;;13.00;59.70;;;;;;6197357;28;20049;-72
2022/01/02 14:50:14;;;;;;;8.48;3.92;;;13.00;59.90;;;;;;6204430;28;20046;-71
2022/01/02 14:53:16;;;;;;;8.73;3.35;;;13.00;60.10;;;;;;6203054;28;20435;-71
2022/01/02 14:56:18;;;;;;;6.05;3.72;;;12.90;60.30;;;;;;6213159;28;20046;-72
2022/01/02 14:59:19;;;;;;;7.25;3.70;;;12.80;60.40;;;;;;6226009;28;20474;-72
2022/01/02 15:02:20;;;;;;;8.60;3.58;;;12.80;60.80;;;;;;6206631;28;20097;-73
2022/01/02 15:05:22;;;;;;;9.10;4.25;;;12.70;61.00;;;;;;6231874;28;20063;-73
2022/01/02 15:08:23;;;;;;;8.13;3.53;;;12.70;61.30;;;;;;6235012;28;20079;-72
2022/01/02 15:11:24;;;;;;;9.75;3.80;;;12.60;61.50;;;;;;6229625;28;20128;-72
2022/01/02 15:14:25;;;;;;;8.50;3.88;;;12.50;61.70;;;;;;6223872;28;20109;-72
2022/01/02 15:17:27;;;;;;;12.35;4.40;;;12.50;62.00;;;;;;6219671;28;20056;-74
2022/01/02 15:20:28;;;;;;;9.80;4.50;;;12.50;62.20;;;;;;6223773;28;20578;-73
2022/01/02 15:23:29;;;;;;;8.32;4.38;;;12.40;62.30;;;;;;6205857;28;20053;-73
2022/01/02 15:26:30;;;;;;;8.85;4.40;;;12.40;62.50;;;;;;6204562;28;20106;-71
2022/01/02 15:29:31;;;;;;;11.15;4.45;;;12.40;62.70;;;;;;6190874;28;20080;-73
2022/01/02 15:32:34;;;;;;;7.75;4.03;;;12.30;62.90;;;;;;6200380;28;20524;-73
2022/01/02 15:35:35;;;;;;;11.63;5.00;;;12.30;63.30;;;;;;6166280;28;20046;-73
2022/01/02 15:38:36;;;;;;;9.32;4.55;;;12.30;63.70;;;;;;6159337;28;20081;-72
2022/01/02 15:41:37;;;;;;;11.55;4.55;;;12.20;63.70;;;;;;6193093;28;20907;-72
2022/01/02 15:44:38;;;;;;;9.88;4.45;;;12.20;63.70;;;;;;6197073;28;20045;-72
2022/01/02 15:47:39;;;;;;;16.65;4.63;;;12.20;63.90;;;;;;6198334;28;20049;-71
2022/01/02 15:50:40;;;;;;;9.57;4.70;;;12.20;64.00;;;;;;6202205;28;20439;-73
2022/01/02 15:53:42;;;;;;;12.05;4.65;;;12.20;64.20;;;;;;6213288;28;20132;-73
2022/01/02 15:56:44;;;;;;;11.95;5.28;;;12.10;64.30;;;;;;6239852;28;20041;-72